Time;durP1;ratioP1;P1;durP2;ratioP2;P2;SDS_P1;SDS_P2;PMS_P1;PMS_P2;Temp;Humidity;BMP_temperature;BMP_pressure;BME280_temperature;BME280_humidity;BME280_pressure;Samples;Min_cycle;Max_cycle;Signal;HPM_P1;HPM_P2
2024/04/21 00:00:04;;;;;;;0.10;0.10;;;;;;;13.57;43.26;102490.31;7361093;19;20402;-59
2024/04/21 00:02:29;;;;;;;0.00;0.00;;;;;;;13.47;43.67;102486.00;7358372;19;20015;-59
2024/04/21 00:04:54;;;;;;;0.00;0.00;;;;;;;13.48;43.75;102493.00;7357591;19;20018;-60
2024/04/21 00:07:20;;;;;;;0.03;0.03;;;;;;;13.43;43.75;102493.03;7358088;19;20479;-60
2024/04/21 00:09:45;;;;;;;0.10;0.10;;;;;;;13.26;44.18;102478.25;7358096;19;20002;-59
2024/04/21 00:12:10;;;;;;;0.00;0.00;;;;;;;13.32;43.95;102499.22;7357004;19;20010;-60
2024/04/21 00:14:36;;;;;;;0.10;0.10;;;;;;;13.32;43.92;102493.97;7357289;19;20394;-60
2024/04/21 00:17:01;;;;;;;0.10;0.10;;;;;;;13.19;44.25;102486.13;7356879;19;20466;-59
2024/04/21 00:19:27;;;;;;;0.00;0.00;;;;;;;13.22;43.98;102499.25;7359107;19;20031;-59
2024/04/21 00:21:52;;;;;;;0.08;0.08;;;;;;;13.18;43.94;102497.50;7351145;19;20086;-60
2024/04/21 00:24:17;;;;;;;0.10;0.10;;;;;;;13.14;44.42;102498.41;7357588;19;20474;-59
2024/04/21 00:26:43;;;;;;;0.03;0.03;;;;;;;12.90;44.30;102464.41;7350738;19;20015;-59
2024/04/21 00:29:08;;;;;;;0.10;0.10;;;;;;;13.06;44.55;102494.94;7358913;19;20006;-60
2024/04/21 00:31:33;;;;;;;0.10;0.10;;;;;;;13.01;44.37;102496.69;7355087;19;20011;-59
2024/04/21 00:33:59;;;;;;;0.10;0.10;;;;;;;12.99;45.00;102490.59;7354475;19;20002;-64
2024/04/21 00:36:24;;;;;;;0.10;0.10;;;;;;;12.89;44.96;102488.91;7358926;19;20492;-59
2024/04/21 00:38:50;;;;;;;0.10;0.10;;;;;;;12.91;44.80;102495.00;7357123;19;20016;-59
2024/04/21 00:41:15;;;;;;;0.10;0.10;;;;;;;12.88;44.78;102487.16;7359354;19;20018;-60
2024/04/21 00:43:40;;;;;;;0.10;0.10;;;;;;;12.84;44.93;102490.66;7354270;19;19998;-58
2024/04/21 00:46:06;;;;;;;0.10;0.10;;;;;;;12.80;44.98;102499.41;7359577;19;20014;-60
2024/04/21 00:48:33;;;;;;;0.10;0.10;;;;;;;12.60;45.47;102466.25;7352127;19;20035;-60
2024/04/21 00:50:59;;;;;;;0.10;0.10;;;;;;;12.75;45.19;102501.16;7357607;19;20117;-59
2024/04/21 00:53:25;;;;;;;0.10;0.10;;;;;;;12.27;45.34;102424.44;7358940;19;20017;-59
2024/04/21 00:55:52;;;;;;;0.00;0.00;;;;;;;12.67;45.16;102501.19;7359824;19;20018;-59
2024/04/21 00:58:18;;;;;;;0.00;0.00;;;;;;;12.62;45.57;102497.69;7360869;19;20028;-59
2024/04/21 01:00:46;;;;;;;0.10;0.10;;;;;;;12.60;45.42;102502.06;7360495;19;20149;-60
2024/04/21 01:03:12;;;;;;;0.00;0.00;;;;;;;12.55;45.30;102498.59;7358326;19;20014;-59
2024/04/21 01:05:37;;;;;;;0.10;0.10;;;;;;;12.51;45.64;102492.47;7356334;19;20028;-60
2024/04/21 01:08:04;;;;;;;0.03;0.03;;;;;;;12.46;45.34;102489.00;7359031;19;20009;-60
2024/04/21 01:10:30;;;;;;;0.00;0.00;;;;;;;12.43;45.50;102491.63;7359966;19;20014;-59
2024/04/21 01:12:55;;;;;;;0.10;0.10;;;;;;;12.38;45.81;102496.00;7359169;19;20383;-60
2024/04/21 01:15:21;;;;;;;0.10;0.10;;;;;;;12.33;45.73;102487.28;7348286;19;20022;-59
2024/04/21 01:17:46;;;;;;;0.00;0.00;;;;;;;12.28;45.96;102486.41;7358566;19;20009;-60
2024/04/21 01:20:12;;;;;;;0.00;0.00;;;;;;;12.16;45.97;102474.19;7358292;19;20146;-60
2024/04/21 01:22:48;;;;;;;0.08;0.08;;;;;;;12.22;45.98;102489.94;7358460;19;20027;-59
2024/04/21 01:25:15;;;;;;;0.00;0.00;;;;;;;12.16;45.79;102490.78;7351888;19;20019;-60
2024/04/21 01:27:41;;;;;;;0.10;0.10;;;;;;;12.12;46.32;102499.53;7359982;19;20003;-58
2024/04/21 01:30:06;;;;;;;0.10;0.10;;;;;;;12.09;46.47;102494.28;7358616;19;20018;-60
2024/04/21 01:32:32;;;;;;;0.05;0.05;;;;;;;12.05;46.21;102492.53;7357168;19;20055;-59
2024/04/21 01:34:57;;;;;;;0.10;0.10;;;;;;;12.02;46.43;102503.03;7349679;19;20375;-59
2024/04/21 01:37:24;;;;;;;0.08;0.08;;;;;;;11.98;46.37;102503.88;7358894;19;20367;-59
2024/04/21 01:39:49;;;;;;;0.10;0.10;;;;;;;11.94;46.66;102500.38;7355191;19;20476;-60
2024/04/21 01:42:15;;;;;;;0.10;0.10;;;;;;;11.91;46.76;102500.41;7366729;19;20007;-59
2024/04/21 01:44:40;;;;;;;0.00;0.00;;;;;;;11.87;46.75;102503.00;7361313;19;20015;-59
2024/04/21 01:47:06;;;;;;;0.00;0.00;;;;;;;11.84;46.96;102503.00;7366295;19;20050;-59
2024/04/21 01:49:31;;;;;;;0.10;0.10;;;;;;;11.81;46.87;102500.34;7362297;19;20034;-59
2024/04/21 01:51:56;;;;;;;0.10;0.10;;;;;;;11.78;46.48;102502.97;7364538;19;20066;-59
2024/04/21 01:54:22;;;;;;;0.10;0.10;;;;;;;11.67;47.10;102495.97;7363654;19;20422;-60
2024/04/21 01:56:48;;;;;;;0.10;0.10;;;;;;;11.70;47.04;102503.81;7362517;19;20024;-59
2024/04/21 01:59:13;;;;;;;0.10;0.10;;;;;;;11.67;46.82;102506.44;7359214;19;20020;-59
2024/04/21 02:01:38;;;;;;;0.10;0.10;;;;;;;11.63;47.01;102502.06;7362479;19;20054;-60
2024/04/21 02:04:04;;;;;;;0.10;0.10;;;;;;;11.61;46.99;102506.44;7363346;19;20753;-60
2024/04/21 02:06:30;;;;;;;0.10;0.10;;;;;;;11.57;47.28;102504.69;7361595;19;20097;-59
2024/04/21 02:08:55;;;;;;;0.00;0.00;;;;;;;11.54;47.24;102504.66;7358936;19;20517;-59
2024/04/21 02:11:21;;;;;;;0.10;0.10;;;;;;;11.51;47.45;102506.41;7365718;19;20018;-59
2024/04/21 02:13:46;;;;;;;0.00;0.00;;;;;;;11.44;47.62;102498.53;7357088;19;20896;-60
2024/04/21 02:16:11;;;;;;;0.10;0.10;;;;;;;11.45;47.23;102504.63;7361019;19;20003;-59
2024/04/21 02:18:37;;;;;;;0.10;0.10;;;;;;;11.40;47.69;102507.25;7361155;19;20018;-59
2024/04/21 02:21:02;;;;;;;0.00;0.00;;;;;;;11.38;47.68;102502.88;7362723;19;20018;-59
2024/04/21 02:23:28;;;;;;;0.00;0.00;;;;;;;11.34;47.98;102503.75;7360026;19;20848;-59
2024/04/21 02:26:00;;;;;;;0.10;0.10;;;;;;;11.32;47.38;102497.66;7365910;19;20446;-59
2024/04/21 02:28:26;;;;;;;0.10;0.10;;;;;;;11.29;47.68;102500.22;7358695;19;20015;-60
2024/04/21 02:30:52;;;;;;;0.00;0.00;;;;;;;11.25;47.73;102496.72;7366514;19;20025;-61
2024/04/21 02:33:17;;;;;;;0.10;0.10;;;;;;;11.22;48.12;102506.31;7364447;19;20086;-59
2024/04/21 02:35:43;;;;;;;0.10;0.10;;;;;;;11.20;48.11;102508.03;7362521;19;20024;-58
2024/04/21 02:38:11;;;;;;;0.10;0.10;;;;;;;11.15;47.86;102498.47;7364593;19;20011;-59
2024/04/21 02:40:36;;;;;;;0.00;0.00;;;;;;;11.13;48.17;102496.69;7366163;19;20132;-59
2024/04/21 02:43:03;;;;;;;0.10;0.10;;;;;;;11.09;48.61;102495.81;7362592;19;20090;-59
2024/04/21 02:45:29;;;;;;;0.00;0.00;;;;;;;11.05;48.26;102499.28;7359711;19;20022;-59
2024/04/21 02:47:54;;;;;;;0.00;0.00;;;;;;;11.03;48.75;102498.41;7360419;19;20011;-60
2024/04/21 02:50:19;;;;;;;0.10;0.10;;;;;;;10.97;48.31;102490.53;7359094;19;20023;-59
2024/04/21 02:52:45;;;;;;;0.00;0.00;;;;;;;10.98;48.55;102497.50;7362099;19;20018;-59
2024/04/21 02:55:10;;;;;;;0.10;0.10;;;;;;;10.93;48.40;102496.59;7357717;19;20021;-59
2024/04/21 02:57:36;;;;;;;0.00;0.00;;;;;;;10.93;48.42;102500.97;7361214;19;20674;-59
2024/04/21 03:00:02;;;;;;;0.05;0.05;;;;;;;10.88;48.65;102495.72;7365148;19;20006;-60
2024/04/21 03:02:27;;;;;;;0.00;0.00;;;;;;;10.84;48.42;102496.56;7367281;19;20014;-59
2024/04/21 03:04:53;;;;;;;0.00;0.00;;;;;;;10.81;48.69;102502.66;7360004;19;20017;-59
2024/04/21 03:07:18;;;;;;;0.10;0.10;;;;;;;10.76;48.62;102495.66;7364921;19;20549;-60
2024/04/21 03:09:44;;;;;;;0.10;0.10;;;;;;;10.74;48.66;102498.25;7342872;19;20010;-60
2024/04/21 03:12:09;;;;;;;0.10;0.10;;;;;;;10.71;48.60;102503.47;7363536;19;20018;-60
2024/04/21 03:14:35;;;;;;;0.10;0.10;;;;;;;10.69;48.52;102509.53;7332713;19;20144;-60
2024/04/21 03:17:04;;;;;;;0.10;0.10;;;;;;;10.51;48.35;102473.75;7361784;19;20014;-59
2024/04/21 03:19:30;;;;;;;0.10;0.10;;;;;;;10.61;48.85;102502.56;7359108;19;20011;-60
2024/04/21 03:21:56;;;;;;;0.00;0.00;;;;;;;10.59;48.93;102504.28;7364388;19;20010;-60
2024/04/21 03:24:22;;;;;;;0.00;0.00;;;;;;;10.44;49.28;102488.53;7365026;19;20626;-60
2024/04/21 03:26:47;;;;;;;0.00;0.00;;;;;;;10.48;48.85;102489.41;7363622;19;20047;-60
2024/04/21 03:29:13;;;;;;;0.00;0.00;;;;;;;10.50;49.10;102504.22;7360612;19;20526;-60
2024/04/21 03:31:38;;;;;;;0.00;0.00;;;;;;;10.49;49.03;102501.59;7363304;19;20142;-59
2024/04/21 03:34:04;;;;;;;0.00;0.00;;;;;;;10.45;49.01;102505.06;7364195;19;20002;-58
2024/04/21 03:36:29;;;;;;;0.00;0.00;;;;;;;10.32;49.29;102489.28;7357700;19;20019;-60
2024/04/21 03:38:54;;;;;;;0.08;0.08;;;;;;;10.24;49.04;102485.78;7365091;19;20014;-59
2024/04/21 03:41:20;;;;;;;0.10;0.10;;;;;;;10.37;49.60;102513.69;7355160;19;20018;-59
2024/04/21 03:43:47;;;;;;;0.10;0.10;;;;;;;10.35;49.65;102509.34;7363740;19;20017;-59
2024/04/21 03:46:13;;;;;;;0.00;0.00;;;;;;;10.32;49.51;102501.47;7363804;19;20031;-59
2024/04/21 03:48:39;;;;;;;0.10;0.10;;;;;;;10.30;49.38;102503.22;7352605;19;20010;-59
2024/04/21 03:51:05;;;;;;;0.03;0.03;;;;;;;10.28;49.48;102502.31;7355368;19;20077;-60
2024/04/21 03:53:31;;;;;;;0.05;0.05;;;;;;;10.24;49.52;102501.44;7360081;19;20022;-60
2024/04/21 03:55:56;;;;;;;0.00;0.00;;;;;;;10.23;49.55;102501.38;7332018;19;20018;-59
2024/04/21 03:58:22;;;;;;;0.03;0.03;;;;;;;10.20;49.79;102493.53;7363001;19;20011;-59
2024/04/21 04:00:47;;;;;;;0.00;0.00;;;;;;;10.18;49.80;102500.47;7361861;19;20947;-59
2024/04/21 04:03:13;;;;;;;0.00;0.00;;;;;;;10.02;49.55;102476.84;7358614;19;20010;-60
2024/04/21 04:05:40;;;;;;;0.05;0.05;;;;;;;9.68;49.84;102409.59;7360237;19;20015;-59
2024/04/21 04:08:06;;;;;;;0.00;0.00;;;;;;;10.08;49.69;102484.72;7360012;19;20740;-60
2024/04/21 04:10:31;;;;;;;0.00;0.00;;;;;;;10.07;49.75;102492.53;7362984;19;20421;-59
2024/04/21 04:12:57;;;;;;;0.10;0.10;;;;;;;9.97;49.70;102486.38;7362939;19;20010;-60
2024/04/21 04:15:22;;;;;;;0.00;0.00;;;;;;;10.01;49.89;102497.72;7362787;19;20043;-59
2024/04/21 04:17:47;;;;;;;0.00;0.00;;;;;;;9.97;49.75;102499.44;7361637;19;20090;-59
2024/04/21 04:20:13;;;;;;;0.10;0.10;;;;;;;9.94;50.22;102509.84;7363364;19;20013;-59
2024/04/21 04:22:41;;;;;;;0.00;0.00;;;;;;;9.84;49.71;102500.19;7360698;19;20018;-59
2024/04/21 04:25:07;;;;;;;0.00;0.00;;;;;;;9.81;50.09;102498.41;7359899;19;20043;-59
2024/04/21 04:27:33;;;;;;;0.10;0.10;;;;;;;9.85;50.22;102507.16;7363010;19;20021;-59
2024/04/21 04:29:58;;;;;;;0.00;0.00;;;;;;;9.83;50.25;102514.06;7360996;19;20901;-59
2024/04/21 04:32:24;;;;;;;0.00;0.00;;;;;;;9.77;50.45;102509.69;7362245;19;20015;-60
2024/04/21 04:34:49;;;;;;;0.10;0.10;;;;;;;9.76;50.26;102522.72;7362791;19;20022;-59
2024/04/21 04:37:15;;;;;;;0.10;0.10;;;;;;;9.73;50.49;102514.84;7358300;19;20022;-60
2024/04/21 04:39:40;;;;;;;0.00;0.00;;;;;;;9.71;50.34;102519.19;7359202;19;20033;-59
2024/04/21 04:42:06;;;;;;;0.10;0.10;;;;;;;9.56;50.64;102505.13;7360036;19;20014;-59
2024/04/21 04:44:31;;;;;;;0.10;0.10;;;;;;;9.66;50.83;102523.47;7356675;19;20052;-59
2024/04/21 04:46:57;;;;;;;0.00;0.00;;;;;;;9.61;50.90;102523.44;7357922;19;20018;-59
2024/04/21 04:49:22;;;;;;;0.08;0.08;;;;;;;9.61;51.02;102524.31;7363054;19;20065;-60
2024/04/21 04:51:48;;;;;;;0.08;0.08;;;;;;;9.55;50.76;102524.25;7358379;19;20007;-59
2024/04/21 04:54:14;;;;;;;0.08;0.08;;;;;;;9.55;51.06;102524.25;7359630;19;20018;-59
2024/04/21 04:56:39;;;;;;;0.05;0.05;;;;;;;9.52;50.99;102528.53;7358198;19;20019;-59
2024/04/21 04:59:04;;;;;;;0.05;0.05;;;;;;;9.19;51.04;102469.09;7361539;19;20795;-59
2024/04/21 05:01:30;;;;;;;0.10;0.10;;;;;;;9.52;51.19;102538.97;7357969;19;20017;-59
2024/04/21 05:03:55;;;;;;;0.00;0.00;;;;;;;9.32;50.89;102505.72;7364229;19;20014;-59
2024/04/21 05:06:21;;;;;;;0.10;0.10;;;;;;;9.31;51.01;102511.81;7355481;19;20059;-60
2024/04/21 05:08:46;;;;;;;0.10;0.10;;;;;;;9.45;51.04;102547.59;7363421;19;20003;-59
2024/04/21 05:11:11;;;;;;;0.08;0.08;;;;;;;9.32;51.06;102521.38;7361119;19;20035;-59
2024/04/21 05:13:37;;;;;;;0.10;0.10;;;;;;;9.41;51.25;102536.25;7361922;19;20013;-59
2024/04/21 05:16:02;;;;;;;0.10;0.10;;;;;;;9.34;51.39;102537.06;7365951;19;20426;-59
2024/04/21 05:18:28;;;;;;;0.00;0.00;;;;;;;9.36;51.47;102548.34;7371027;19;20010;-59
2024/04/21 05:20:53;;;;;;;0.10;0.10;;;;;;;9.34;51.44;102550.97;7368349;19;20041;-59
2024/04/21 05:23:19;;;;;;;0.00;0.00;;;;;;;9.32;51.17;102552.66;7369546;19;20002;-59
2024/04/21 05:25:44;;;;;;;0.00;0.00;;;;;;;9.31;51.46;102550.03;7364738;19;20022;-60
2024/04/21 05:28:09;;;;;;;0.08;0.08;;;;;;;9.27;51.68;102548.25;7369463;19;20469;-60
2024/04/21 05:30:36;;;;;;;0.00;0.00;;;;;;;9.28;51.46;102561.31;7352987;19;20018;-60
2024/04/21 05:33:02;;;;;;;0.10;0.10;;;;;;;9.17;51.47;102541.16;7367832;19;20358;-59
2024/04/21 05:35:27;;;;;;;0.10;0.10;;;;;;;9.25;52.01;102557.78;7365020;19;20078;-59
2024/04/21 05:37:53;;;;;;;0.00;0.00;;;;;;;9.22;51.66;102558.59;7366671;19;20090;-60
2024/04/21 05:40:18;;;;;;;0.10;0.10;;;;;;;9.22;51.98;102560.34;7363660;19;20015;-59
2024/04/21 05:42:43;;;;;;;0.08;0.08;;;;;;;9.20;51.73;102562.06;7354739;19;20014;-60
2024/04/21 05:45:09;;;;;;;0.00;0.00;;;;;;;8.73;51.66;102486.75;7362029;19;20007;-59
2024/04/21 05:47:34;;;;;;;0.10;0.10;;;;;;;9.19;52.09;102566.41;7368697;19;20027;-60
2024/04/21 05:50:00;;;;;;;0.05;0.05;;;;;;;9.14;51.95;102556.78;7364772;19;20078;-60
2024/04/21 05:52:25;;;;;;;0.10;0.10;;;;;;;9.19;52.17;102575.97;7368201;19;20007;-60
2024/04/21 05:54:50;;;;;;;0.10;0.10;;;;;;;9.19;52.01;102575.97;7364892;19;20007;-60
2024/04/21 05:57:16;;;;;;;0.10;0.10;;;;;;;9.19;51.92;102575.97;7357044;19;20474;-59
2024/04/21 05:59:41;;;;;;;0.00;0.00;;;;;;;9.20;52.21;102583.78;7362250;19;20046;-60
2024/04/21 06:02:08;;;;;;;0.10;0.10;;;;;;;9.18;51.72;102574.22;7365171;19;20457;-59
2024/04/21 06:04:33;;;;;;;0.10;0.10;;;;;;;9.22;51.98;102581.19;7366645;19;20618;-60
2024/04/21 06:06:59;;;;;;;0.00;0.00;;;;;;;9.23;51.92;102577.75;7367130;19;20034;-59
2024/04/21 06:09:24;;;;;;;0.10;0.10;;;;;;;9.24;52.20;102584.72;7363689;19;20030;-59
2024/04/21 06:11:52;;;;;;;0.00;0.00;;;;;;;9.25;51.87;102582.13;7367643;19;20002;-59
2024/04/21 06:14:18;;;;;;;0.00;0.00;;;;;;;9.27;52.05;102584.75;7351805;19;20020;-59
2024/04/21 06:16:43;;;;;;;0.00;0.00;;;;;;;9.30;52.29;102585.66;7363803;19;20010;-59
2024/04/21 06:19:08;;;;;;;0.05;0.05;;;;;;;9.31;52.06;102586.53;7366822;19;20126;-59
2024/04/21 06:21:34;;;;;;;0.00;0.00;;;;;;;9.35;51.95;102583.13;7356429;19;20003;-60
2024/04/21 06:23:59;;;;;;;0.05;0.05;;;;;;;9.26;51.74;102575.19;7357413;19;20077;-60
2024/04/21 06:26:25;;;;;;;0.10;0.10;;;;;;;9.41;51.66;102588.41;7361568;19;20078;-60
2024/04/21 06:28:50;;;;;;;0.08;0.08;;;;;;;9.45;51.63;102595.41;7361524;19;20007;-60
2024/04/21 06:31:15;;;;;;;0.00;0.00;;;;;;;9.47;51.63;102591.06;7365677;19;20002;-59
2024/04/21 06:33:41;;;;;;;0.10;0.10;;;;;;;9.55;51.28;102597.28;7363269;19;20078;-59
2024/04/21 06:36:06;;;;;;;0.10;0.10;;;;;;;9.60;51.40;102603.41;7367217;19;20010;-59
2024/04/21 06:38:32;;;;;;;0.05;0.05;;;;;;;9.65;51.50;102606.09;7363808;19;20016;-59
2024/04/21 06:40:57;;;;;;;0.08;0.08;;;;;;;9.71;51.57;102605.28;7355673;19;20042;-59
2024/04/21 06:43:23;;;;;;;0.10;0.10;;;;;;;9.77;51.09;102602.72;7358615;19;20006;-60
2024/04/21 06:45:48;;;;;;;0.10;0.10;;;;;;;9.82;50.96;102608.88;7365930;19;20027;-60
2024/04/21 06:48:14;;;;;;;0.10;0.10;;;;;;;9.89;50.87;102615.94;7361324;19;20010;-60
2024/04/21 06:50:42;;;;;;;0.03;0.03;;;;;;;9.94;50.88;102615.97;7363722;19;20081;-60
2024/04/21 06:53:07;;;;;;;0.00;0.00;;;;;;;9.95;51.10;102605.56;7364419;19;20018;-59
2024/04/21 06:55:33;;;;;;;0.08;0.08;;;;;;;10.06;50.81;102605.66;7360826;19;20491;-59
2024/04/21 06:57:58;;;;;;;0.10;0.10;;;;;;;10.12;50.97;102611.81;7360318;19;20032;-59
2024/04/21 07:00:23;;;;;;;0.00;0.00;;;;;;;10.20;51.00;102613.63;7364720;19;20086;-60
2024/04/21 07:02:49;;;;;;;0.10;0.10;;;;;;;10.26;50.40;102618.94;7363038;19;20002;-60
2024/04/21 07:05:14;;;;;;;0.00;0.00;;;;;;;10.30;50.84;102620.72;7354995;19;20018;-60
2024/04/21 07:07:39;;;;;;;0.10;0.10;;;;;;;10.35;50.49;102619.91;7363708;19;20003;-60
2024/04/21 07:10:05;;;;;;;0.10;0.10;;;;;;;10.41;50.45;102619.06;7363717;19;20929;-60
2024/04/21 07:12:31;;;;;;;0.10;0.10;;;;;;;10.42;51.47;102602.53;7357750;19;20010;-59
2024/04/21 07:14:56;;;;;;;0.10;0.10;;;;;;;10.52;51.80;102612.19;7365491;19;20504;-60
2024/04/21 07:17:21;;;;;;;0.10;0.10;;;;;;;10.54;51.35;102605.25;7358135;19;20010;-59
2024/04/21 07:19:47;;;;;;;0.00;0.00;;;;;;;10.57;51.12;102605.28;7364554;19;20035;-60
2024/04/21 07:22:12;;;;;;;0.10;0.10;;;;;;;10.68;51.24;102622.78;7363500;19;20393;-59
2024/04/21 07:24:38;;;;;;;0.10;0.10;;;;;;;10.72;51.12;102614.09;7362326;19;20014;-60
2024/04/21 07:27:04;;;;;;;0.10;0.10;;;;;;;10.76;51.20;102613.25;7363409;19;20010;-60
2024/04/21 07:29:29;;;;;;;0.10;0.10;;;;;;;10.82;51.46;102616.78;7363118;19;20624;-59
2024/04/21 07:31:55;;;;;;;0.10;0.10;;;;;;;10.87;51.50;102619.44;7362273;19;20958;-59
2024/04/21 07:34:20;;;;;;;0.10;0.10;;;;;;;10.93;51.02;102624.69;7352868;19;20011;-60
2024/04/21 07:36:46;;;;;;;0.10;0.10;;;;;;;10.90;50.75;102609.00;7363923;19;20914;-60
2024/04/21 07:39:12;;;;;;;0.10;0.10;;;;;;;11.07;50.90;102625.66;7358242;19;20007;-60
2024/04/21 07:41:40;;;;;;;0.10;0.10;;;;;;;11.16;50.77;102633.56;7361747;19;20138;-60
2024/04/21 07:44:08;;;;;;;0.00;0.00;;;;;;;11.23;50.95;102633.59;7361685;19;20057;-60
2024/04/21 07:46:34;;;;;;;0.03;0.03;;;;;;;11.29;50.94;102633.63;7363322;19;20027;-60
2024/04/21 07:49:01;;;;;;;0.10;0.10;;;;;;;11.37;50.60;102637.16;7354264;19;20074;-61
2024/04/21 07:51:27;;;;;;;0.08;0.08;;;;;;;11.44;51.10;102644.16;7360560;19;20018;-59
2024/04/21 07:53:53;;;;;;;0.10;0.10;;;;;;;11.52;50.75;102647.69;7359909;19;20728;-60
2024/04/21 07:56:18;;;;;;;0.10;0.10;;;;;;;11.60;50.67;102645.97;7358129;19;20030;-60
2024/04/21 07:58:44;;;;;;;0.10;0.10;;;;;;;11.67;50.98;102647.75;7359550;19;20018;-59
2024/04/21 08:01:09;;;;;;;0.10;0.10;;;;;;;11.77;50.64;102648.66;7363274;19;20011;-60
2024/04/21 08:03:35;;;;;;;0.00;0.00;;;;;;;11.84;50.77;102660.94;7358300;19;20050;-63
2024/04/21 08:06:01;;;;;;;0.10;0.10;;;;;;;11.91;51.11;102654.88;7359417;19;20010;-60
2024/04/21 08:08:27;;;;;;;0.05;0.05;;;;;;;11.98;50.81;102657.50;7362402;19;20086;-60
2024/04/21 08:11:00;;;;;;;0.10;0.10;;;;;;;12.06;50.75;102653.13;7357854;19;20010;-60
2024/04/21 08:13:25;;;;;;;0.10;0.10;;;;;;;12.12;50.81;102648.81;7361264;19;20025;-59
2024/04/21 08:15:52;;;;;;;0.00;0.00;;;;;;;12.18;50.76;102647.94;7355171;19;20007;-60
2024/04/21 08:18:17;;;;;;;0.10;0.10;;;;;;;12.24;51.18;102660.16;7362650;19;20014;-60
2024/04/21 08:20:46;;;;;;;0.10;0.10;;;;;;;12.31;51.09;102656.69;7357309;19;20046;-60
2024/04/21 08:23:12;;;;;;;0.10;0.10;;;;;;;12.34;51.08;102661.94;7360923;19;20570;-60
2024/04/21 08:25:39;;;;;;;0.10;0.10;;;;;;;12.37;51.99;102657.56;7358448;19;20022;-60
2024/04/21 08:28:04;;;;;;;0.10;0.10;;;;;;;12.38;51.63;102656.69;7362623;19;20032;-60
2024/04/21 08:30:29;;;;;;;0.10;0.10;;;;;;;12.48;52.03;102649.72;7362651;19;20010;-60
2024/04/21 08:32:55;;;;;;;0.10;0.10;;;;;;;12.52;51.51;102646.25;7361627;19;20479;-59
2024/04/21 08:35:20;;;;;;;0.10;0.10;;;;;;;12.52;51.60;102634.84;7360329;19;20011;-59
2024/04/21 08:37:46;;;;;;;0.10;0.10;;;;;;;12.61;51.56;102651.47;7361001;19;20010;-60
2024/04/21 08:40:11;;;;;;;0.10;0.10;;;;;;;12.65;51.54;102653.22;7358895;19;20025;-59
2024/04/21 08:42:36;;;;;;;0.10;0.10;;;;;;;12.64;51.47;102640.97;7358988;19;20015;-60
2024/04/21 08:45:04;;;;;;;0.10;0.10;;;;;;;12.73;51.48;102638.38;7359076;19;20038;-60
2024/04/21 08:47:32;;;;;;;0.10;0.10;;;;;;;12.81;51.50;102642.72;7360590;19;20514;-60
2024/04/21 08:50:00;;;;;;;0.10;0.10;;;;;;;12.90;51.92;102642.72;7364705;19;20330;-60
2024/04/21 08:52:25;;;;;;;0.10;0.10;;;;;;;13.02;51.43;102647.94;7364812;19;20019;-60
2024/04/21 08:54:51;;;;;;;0.00;0.00;;;;;;;13.18;51.44;102633.94;7368809;19;20042;-60
2024/04/21 08:57:18;;;;;;;0.10;0.10;;;;;;;13.37;51.07;102636.50;7367164;19;20086;-61
2024/04/21 08:59:45;;;;;;;0.10;0.10;;;;;;;13.59;51.06;102639.94;7367863;19;20359;-60
2024/04/21 09:02:11;;;;;;;0.10;0.10;;;;;;;13.83;50.91;102649.44;7362090;19;20380;-60
2024/04/21 09:04:40;;;;;;;0.10;0.10;;;;;;;14.12;50.88;102646.66;7366458;19;20029;-60
2024/04/21 09:07:06;;;;;;;0.10;0.10;;;;;;;14.36;50.89;102645.63;7365938;19;20767;-60
2024/04/21 09:09:32;;;;;;;0.10;0.10;;;;;;;14.63;50.23;102634.91;7364548;19;20366;-60
2024/04/21 09:11:57;;;;;;;0.10;0.10;;;;;;;14.90;50.06;102639.06;7364889;19;20010;-60
2024/04/21 09:14:23;;;;;;;0.10;0.10;;;;;;;15.24;49.81;102650.09;7363603;19;20127;-60
2024/04/21 09:16:48;;;;;;;0.10;0.10;;;;;;;15.53;49.51;102647.13;7364293;19;20007;-60
2024/04/21 09:19:14;;;;;;;0.10;0.10;;;;;;;15.71;49.16;102632.91;7366961;19;19999;-60
2024/04/21 09:21:41;;;;;;;0.10;0.10;;;;;;;16.15;48.96;102638.41;7366816;19;20900;-60
2024/04/21 09:24:07;;;;;;;0.10;0.10;;;;;;;16.47;48.75;102638.78;7364928;19;20018;-61
2024/04/21 09:26:33;;;;;;;0.10;0.10;;;;;;;16.77;48.19;102642.69;7365906;19;20021;-61
2024/04/21 09:28:59;;;;;;;0.10;0.10;;;;;;;17.09;48.08;102638.63;7368106;19;20027;-60
2024/04/21 09:31:27;;;;;;;0.10;0.10;;;;;;;17.47;47.79;102636.97;7365529;19;20010;-60
2024/04/21 09:33:53;;;;;;;0.10;0.10;;;;;;;17.71;47.45;102641.75;7365800;19;20030;-61
2024/04/21 09:36:19;;;;;;;0.10;0.10;;;;;;;18.05;46.79;102644.56;7366078;19;20010;-61
2024/04/21 09:38:47;;;;;;;0.10;0.10;;;;;;;18.45;46.74;102643.63;7360618;19;20101;-61
2024/04/21 09:41:14;;;;;;;0.10;0.10;;;;;;;18.77;46.22;102629.59;7364797;19;20010;-60
2024/04/21 09:43:42;;;;;;;0.17;0.17;;;;;;;19.13;44.16;102640.09;7359697;19;20019;-60
2024/04/21 09:46:10;;;;;;;0.10;0.10;;;;;;;19.50;44.63;102631.09;7366700;19;20019;-61
2024/04/21 09:48:37;;;;;;;0.05;0.05;;;;;;;19.76;43.97;102631.22;7363103;19;20515;-61
2024/04/21 09:51:04;;;;;;;0.10;0.10;;;;;;;20.03;43.29;102608.28;7367870;19;20010;-61
2024/04/21 09:53:29;;;;;;;0.10;0.10;;;;;;;20.39;43.24;102624.81;7366263;19;20027;-61
2024/04/21 09:55:56;;;;;;;0.10;0.10;;;;;;;20.70;42.49;102626.44;7362981;19;20007;-61
2024/04/21 09:58:24;;;;;;;0.10;0.10;;;;;;;21.09;42.89;102628.63;7367015;19;20467;-61
2024/04/21 10:00:52;;;;;;;0.10;0.10;;;;;;;21.40;42.33;102625.75;7360885;19;20023;-60
2024/04/21 10:03:18;;;;;;;0.10;0.10;;;;;;;21.64;42.41;102629.22;7365765;19;20477;-60
2024/04/21 10:05:44;;;;;;;0.10;0.10;;;;;;;21.98;42.35;102627.00;7364472;19;20010;-61
2024/04/21 10:08:11;;;;;;;0.08;0.08;;;;;;;22.18;40.52;102615.56;7366967;19;20014;-60
2024/04/21 10:10:38;;;;;;;0.10;0.10;;;;;;;22.57;39.93;102629.97;7361396;19;20658;-61
2024/04/21 10:13:04;;;;;;;;;;;;;;;23.23;42.50;102643.97;7364640;19;20015;-60
2024/04/21 10:15:30;;;;;;;0.10;0.10;;;;;;;23.31;40.11;102655.13;7364006;19;19922;-61
2024/04/21 10:17:57;;;;;;;0.10;0.10;;;;;;;23.55;39.86;102645.13;7364965;19;20014;-60
2024/04/21 10:20:34;;;;;;;0.10;0.10;;;;;;;23.94;39.76;102623.75;7363734;19;20009;-60
2024/04/21 10:23:01;;;;;;;0.10;0.10;;;;;;;24.20;38.68;102637.63;7363227;19;20022;-60
2024/04/21 10:25:33;;;;;;;0.10;0.10;;;;;;;24.48;38.59;102627.34;7362565;19;20073;-61
2024/04/21 10:28:05;;;;;;;0.10;0.10;;;;;;;24.94;39.43;102634.75;7365203;19;20035;-61
2024/04/21 10:30:31;;;;;;;0.10;0.10;;;;;;;25.12;37.96;102643.66;7359226;19;20494;-61
2024/04/21 10:33:00;;;;;;;0.20;0.20;;;;;;;25.53;37.27;102634.25;7362642;19;20013;-61
2024/04/21 10:35:35;;;;;;;0.10;0.10;;;;;;;25.80;37.95;102625.66;7363882;19;20018;-60
2024/04/21 10:38:10;;;;;;;0.10;0.10;;;;;;;26.19;37.84;102627.00;7363065;19;20017;-61
2024/04/21 10:40:46;;;;;;;0.10;0.10;;;;;;;26.50;37.64;102620.75;7362846;19;20014;-60
2024/04/21 10:43:14;;;;;;;0.10;0.10;;;;;;;26.61;35.56;102618.28;7364369;19;20014;-60
2024/04/21 10:45:39;;;;;;;0.00;0.00;;;;;;;26.91;33.71;102639.69;7360241;19;20434;-61
2024/04/21 10:48:06;;;;;;;0.10;0.10;;;;;;;27.14;33.46;102627.59;7365957;19;20046;-60
2024/04/21 10:50:34;;;;;;;0.10;0.10;;;;;;;27.48;33.78;102629.00;7356865;19;20031;-61
2024/04/21 10:52:59;;;;;;;0.08;0.08;;;;;;;27.73;33.45;102635.50;7358732;19;20031;-60
2024/04/21 10:55:25;;;;;;;0.10;0.10;;;;;;;28.05;33.60;102631.59;7365486;19;20013;-60
2024/04/21 10:57:51;;;;;;;0.10;0.10;;;;;;;28.36;32.92;102640.31;7360172;19;20449;-61
2024/04/21 11:00:17;;;;;;;0.10;0.10;;;;;;;28.66;32.74;102637.38;7360853;19;20010;-61
2024/04/21 11:02:42;;;;;;;0.10;0.10;;;;;;;28.97;31.17;102638.81;7357026;19;20479;-61
2024/04/21 11:05:08;;;;;;;0.00;0.00;;;;;;;29.14;31.73;102616.94;7363834;19;20418;-61
2024/04/21 11:07:36;;;;;;;0.10;0.10;;;;;;;29.58;30.70;102642.53;7364015;19;20015;-61
2024/04/21 11:10:02;;;;;;;0.08;0.08;;;;;;;29.88;31.44;102639.44;7333739;19;20002;-61
2024/04/21 11:12:29;;;;;;;0.10;0.10;;;;;;;30.19;30.30;102643.41;7364436;19;20022;-61
2024/04/21 11:14:58;;;;;;;0.10;0.10;;;;;;;30.51;29.58;102634.69;7361743;19;20018;-61
2024/04/21 11:17:23;;;;;;;0.10;0.10;;;;;;;30.69;28.76;102635.97;7363058;19;20010;-61
2024/04/21 11:19:49;;;;;;;0.10;0.10;;;;;;;30.91;28.39;102645.97;7360650;19;20014;-61